Bairdstown, Ohio
Current Conditions -  °F | °C
As of 10:53 AM on Friday 19 Dec 2014 (Local Time) from KFDY Reporting Station
Haze Haze  
Wind Chill: 23°   Ceiling: 2400
Heat Index: 30°   Visibility: 6mi
Dew Point: 25°   Wind: 7mph
Humidity: 82%   Direction: 260°W
Pressure: 30.27"   Gusts: NA
Location:  41.1901°N, 83.6878°W
Report Text: KFDY 191553Z AUTO 26006KT 6SM HZ FEW009 OVC024 M01/M04 A3027 RMK AO2 SLP256 T10111039
Loading
Personal Weather Stations






























Interactive Weather Map New forecast layout! Learn more

10-Day Weather Forecast

Advertisements
Track Severe Weather on mobile